Prole, Iowa
Current Conditions -  °F | °C
As of 9:54 PM on Wednesday 17 Dec 2014 (Local Time) from KDSM Reporting Station
Broken Clouds Broken Clouds  
Wind Chill: 17°   Ceiling: 30000
Heat Index: 24°   Visibility: 10mi
Dew Point: 16°   Wind: 6mph
Humidity: 71%   Direction: 80°E
Pressure: 30.3"   Gusts: NA
Location:  41.41°N, 93.73°W
Report Text: KDSM 180354Z 08005KT 10SM FEW200 BKN300 M04/M09 A3030 RMK AO2 SLP275 T10441089
Loading
Personal Weather Stations






























Interactive Weather Map New forecast layout! Learn more

10-Day Weather Forecast

Advertisements
Track Severe Weather on mobile